Terminal Aerodrome Forecast
Issued by NWS Louisville, KY

Home | Current Version | Previous Version | Text Only | Print | Product List | Glossary On
Versions: 1 2 3 4 5 6 7 8 9 10 11 12 13 14 15 16 17 18 19 20 21
000
FTUS43 KLMK 242320
TAFLEX
TAF
KLEX 242320Z 2500/2524 30010KT P6SM FEW060 BKN250
     FM250500 VRB03KT P6SM SCT250
     FM251700 27011G20KT P6SM FEW060=

USA.gov is the U.S. government's official web portal to all federal, state and local government web resources and services.